sensor_id;sensor_type;location;lat;lon;timestamp;P1;durP1;ratioP1;P2;durP2;ratioP2
21593;SDS011;10959;51.328;7.322;2022-12-20T00:01:06;3.27;;;2.97;;
21593;SDS011;10959;51.328;7.322;2022-12-20T00:03:33;3.23;;;2.60;;
21593;SDS011;10959;51.328;7.322;2022-12-20T00:06:00;4.93;;;3.00;;
21593;SDS011;10959;51.328;7.322;2022-12-20T00:08:26;4.10;;;2.97;;
21593;SDS011;10959;51.328;7.322;2022-12-20T00:10:53;3.97;;;3.00;;
21593;SDS011;10959;51.328;7.322;2022-12-20T00:13:19;3.57;;;2.90;;
21593;SDS011;10959;51.328;7.322;2022-12-20T00:15:47;2.50;;;2.30;;
21593;SDS011;10959;51.328;7.322;2022-12-20T00:18:14;3.50;;;2.80;;
21593;SDS011;10959;51.328;7.322;2022-12-20T00:20:40;3.33;;;2.50;;
21593;SDS011;10959;51.328;7.322;2022-12-20T00:23:06;3.50;;;2.73;;
21593;SDS011;10959;51.328;7.322;2022-12-20T00:25:33;4.40;;;2.63;;
21593;SDS011;10959;51.328;7.322;2022-12-20T00:27:59;2.80;;;2.50;;
21593;SDS011;10959;51.328;7.322;2022-12-20T00:30:27;3.87;;;2.80;;
21593;SDS011;10959;51.328;7.322;2022-12-20T00:32:54;3.67;;;2.30;;
21593;SDS011;10959;51.328;7.322;2022-12-20T00:35:21;3.70;;;2.63;;
21593;SDS011;10959;51.328;7.322;2022-12-20T00:37:47;3.83;;;2.33;;
21593;SDS011;10959;51.328;7.322;2022-12-20T00:40:14;3.37;;;2.20;;
21593;SDS011;10959;51.328;7.322;2022-12-20T00:42:40;4.27;;;2.70;;
21593;SDS011;10959;51.328;7.322;2022-12-20T00:45:07;4.53;;;2.47;;
21593;SDS011;10959;51.328;7.322;2022-12-20T00:47:34;3.33;;;2.30;;
21593;SDS011;10959;51.328;7.322;2022-12-20T00:50:02;4.23;;;2.20;;
21593;SDS011;10959;51.328;7.322;2022-12-20T00:52:29;3.43;;;2.33;;
21593;SDS011;10959;51.328;7.322;2022-12-20T00:54:55;4.30;;;2.20;;
21593;SDS011;10959;51.328;7.322;2022-12-20T00:57:22;3.70;;;2.50;;
21593;SDS011;10959;51.328;7.322;2022-12-20T00:59:49;3.20;;;2.33;;
21593;SDS011;10959;51.328;7.322;2022-12-20T01:02:15;2.60;;;2.17;;
21593;SDS011;10959;51.328;7.322;2022-12-20T01:04:41;3.13;;;2.37;;
21593;SDS011;10959;51.328;7.322;2022-12-20T01:07:09;2.50;;;2.30;;
21593;SDS011;10959;51.328;7.322;2022-12-20T01:09:36;2.40;;;2.20;;
21593;SDS011;10959;51.328;7.322;2022-12-20T01:12:02;4.47;;;2.93;;
21593;SDS011;10959;51.328;7.322;2022-12-20T01:14:29;4.10;;;2.67;;
21593;SDS011;10959;51.328;7.322;2022-12-20T01:16:55;2.97;;;2.47;;
21593;SDS011;10959;51.328;7.322;2022-12-20T01:19:22;3.03;;;2.23;;
21593;SDS011;10959;51.328;7.322;2022-12-20T01:21:48;4.17;;;2.60;;
21593;SDS011;10959;51.328;7.322;2022-12-20T01:24:17;3.93;;;2.43;;
21593;SDS011;10959;51.328;7.322;2022-12-20T01:26:45;3.57;;;2.33;;
21593;SDS011;10959;51.328;7.322;2022-12-20T01:29:12;2.30;;;2.10;;
21593;SDS011;10959;51.328;7.322;2022-12-20T01:31:39;3.20;;;2.10;;
21593;SDS011;10959;51.328;7.322;2022-12-20T01:34:06;2.97;;;2.13;;
21593;SDS011;10959;51.328;7.322;2022-12-20T01:36:33;4.23;;;2.40;;
21593;SDS011;10959;51.328;7.322;2022-12-20T01:39:03;3.17;;;2.53;;
21593;SDS011;10959;51.328;7.322;2022-12-20T01:41:32;2.97;;;2.57;;
21593;SDS011;10959;51.328;7.322;2022-12-20T01:43:59;2.53;;;2.33;;
21593;SDS011;10959;51.328;7.322;2022-12-20T01:46:27;3.90;;;2.47;;
21593;SDS011;10959;51.328;7.322;2022-12-20T01:48:56;5.90;;;2.20;;
21593;SDS011;10959;51.328;7.322;2022-12-20T01:51:28;2.30;;;2.10;;
21593;SDS011;10959;51.328;7.322;2022-12-20T01:53:57;2.17;;;1.93;;
21593;SDS011;10959;51.328;7.322;2022-12-20T01:56:28;2.77;;;2.43;;
21593;SDS011;10959;51.328;7.322;2022-12-20T01:58:56;3.37;;;2.73;;
21593;SDS011;10959;51.328;7.322;2022-12-20T02:01:23;6.43;;;2.70;;
21593;SDS011;10959;51.328;7.322;2022-12-20T02:03:50;3.67;;;3.10;;
21593;SDS011;10959;51.328;7.322;2022-12-20T02:06:19;4.03;;;3.20;;
21593;SDS011;10959;51.328;7.322;2022-12-20T02:08:48;4.17;;;3.00;;
21593;SDS011;10959;51.328;7.322;2022-12-20T02:11:27;3.63;;;2.70;;
21593;SDS011;10959;51.328;7.322;2022-12-20T02:14:21;3.63;;;3.20;;
21593;SDS011;10959;51.328;7.322;2022-12-20T02:17:01;3.73;;;3.33;;
21593;SDS011;10959;51.328;7.322;2022-12-20T02:19:41;4.47;;;3.07;;
21593;SDS011;10959;51.328;7.322;2022-12-20T02:22:23;5.50;;;3.17;;
21593;SDS011;10959;51.328;7.322;2022-12-20T02:25:02;3.50;;;3.20;;
21593;SDS011;10959;51.328;7.322;2022-12-20T02:27:41;3.63;;;3.27;;
21593;SDS011;10959;51.328;7.322;2022-12-20T02:30:15;5.33;;;3.20;;
21593;SDS011;10959;51.328;7.322;2022-12-20T02:32:46;3.50;;;2.67;;
21593;SDS011;10959;51.328;7.322;2022-12-20T02:35:19;5.73;;;3.70;;
21593;SDS011;10959;51.328;7.322;2022-12-20T02:37:48;4.10;;;3.17;;
21593;SDS011;10959;51.328;7.322;2022-12-20T02:40:16;3.87;;;3.53;;
21593;SDS011;10959;51.328;7.322;2022-12-20T02:42:46;4.43;;;4.03;;
21593;SDS011;10959;51.328;7.322;2022-12-20T02:45:17;3.80;;;3.30;;
21593;SDS011;10959;51.328;7.322;2022-12-20T02:47:47;4.10;;;2.60;;
21593;SDS011;10959;51.328;7.322;2022-12-20T02:50:17;3.97;;;3.57;;
21593;SDS011;10959;51.328;7.322;2022-12-20T02:52:48;4.17;;;3.40;;
21593;SDS011;10959;51.328;7.322;2022-12-20T02:55:16;3.97;;;2.93;;
21593;SDS011;10959;51.328;7.322;2022-12-20T02:57:44;4.67;;;3.40;;
21593;SDS011;10959;51.328;7.322;2022-12-20T03:00:19;3.50;;;3.20;;
21593;SDS011;10959;51.328;7.322;2022-12-20T03:02:47;5.70;;;3.27;;
21593;SDS011;10959;51.328;7.322;2022-12-20T03:05:33;5.00;;;3.37;;
21593;SDS011;10959;51.328;7.322;2022-12-20T03:08:03;3.53;;;3.23;;
21593;SDS011;10959;51.328;7.322;2022-12-20T03:10:30;5.03;;;3.60;;
21593;SDS011;10959;51.328;7.322;2022-12-20T03:12:56;3.30;;;2.80;;
21593;SDS011;10959;51.328;7.322;2022-12-20T03:15:24;4.30;;;3.07;;
21593;SDS011;10959;51.328;7.322;2022-12-20T03:17:50;4.30;;;3.53;;
21593;SDS011;10959;51.328;7.322;2022-12-20T03:20:17;3.97;;;3.33;;
21593;SDS011;10959;51.328;7.322;2022-12-20T03:22:43;3.80;;;3.13;;
21593;SDS011;10959;51.328;7.322;2022-12-20T03:25:10;3.30;;;2.80;;
21593;SDS011;10959;51.328;7.322;2022-12-20T03:27:36;4.67;;;3.17;;
21593;SDS011;10959;51.328;7.322;2022-12-20T03:30:04;4.53;;;3.00;;
21593;SDS011;10959;51.328;7.322;2022-12-20T03:32:33;3.47;;;3.17;;
21593;SDS011;10959;51.328;7.322;2022-12-20T03:34:59;3.20;;;2.90;;
21593;SDS011;10959;51.328;7.322;2022-12-20T03:37:26;3.93;;;3.13;;
21593;SDS011;10959;51.328;7.322;2022-12-20T03:39:52;4.37;;;2.77;;
21593;SDS011;10959;51.328;7.322;2022-12-20T03:42:18;3.63;;;3.10;;
21593;SDS011;10959;51.328;7.322;2022-12-20T03:44:45;4.37;;;3.63;;
21593;SDS011;10959;51.328;7.322;2022-12-20T03:47:11;7.33;;;3.20;;
21593;SDS011;10959;51.328;7.322;2022-12-20T03:49:39;4.83;;;3.13;;
21593;SDS011;10959;51.328;7.322;2022-12-20T03:52:06;6.13;;;3.20;;
21593;SDS011;10959;51.328;7.322;2022-12-20T03:54:32;3.20;;;2.90;;
21593;SDS011;10959;51.328;7.322;2022-12-20T03:56:59;3.57;;;2.97;;
21593;SDS011;10959;51.328;7.322;2022-12-20T03:59:25;4.93;;;3.47;;
21593;SDS011;10959;51.328;7.322;2022-12-20T04:01:51;4.40;;;3.00;;
21593;SDS011;10959;51.328;7.322;2022-12-20T04:04:18;6.60;;;3.73;;
21593;SDS011;10959;51.328;7.322;2022-12-20T04:06:46;4.00;;;3.57;;
21593;SDS011;10959;51.328;7.322;2022-12-20T04:09:13;4.13;;;2.93;;
21593;SDS011;10959;51.328;7.322;2022-12-20T04:11:39;5.33;;;3.33;;
21593;SDS011;10959;51.328;7.322;2022-12-20T04:14:06;4.77;;;3.70;;
21593;SDS011;10959;51.328;7.322;2022-12-20T04:16:32;4.10;;;3.00;;
21593;SDS011;10959;51.328;7.322;2022-12-20T04:18:59;4.70;;;3.50;;
21593;SDS011;10959;51.328;7.322;2022-12-20T04:21:26;5.13;;;3.37;;
21593;SDS011;10959;51.328;7.322;2022-12-20T04:23:55;4.40;;;3.50;;
21593;SDS011;10959;51.328;7.322;2022-12-20T04:26:23;4.43;;;3.87;;
21593;SDS011;10959;51.328;7.322;2022-12-20T04:28:49;3.73;;;3.43;;
21593;SDS011;10959;51.328;7.322;2022-12-20T04:31:16;4.03;;;3.50;;
21593;SDS011;10959;51.328;7.322;2022-12-20T04:33:43;5.17;;;3.80;;
21593;SDS011;10959;51.328;7.322;2022-12-20T04:36:10;4.23;;;3.73;;
21593;SDS011;10959;51.328;7.322;2022-12-20T04:38:37;6.57;;;3.20;;
21593;SDS011;10959;51.328;7.322;2022-12-20T04:41:05;4.43;;;3.70;;
21593;SDS011;10959;51.328;7.322;2022-12-20T04:43:32;4.63;;;3.33;;
21593;SDS011;10959;51.328;7.322;2022-12-20T04:45:58;4.20;;;3.63;;
21593;SDS011;10959;51.328;7.322;2022-12-20T04:48:25;5.00;;;3.77;;
21593;SDS011;10959;51.328;7.322;2022-12-20T04:50:53;6.13;;;3.70;;
21593;SDS011;10959;51.328;7.322;2022-12-20T04:53:20;4.23;;;3.60;;
21593;SDS011;10959;51.328;7.322;2022-12-20T04:56:07;6.33;;;4.20;;
21593;SDS011;10959;51.328;7.322;2022-12-20T04:58:34;8.20;;;4.10;;
21593;SDS011;10959;51.328;7.322;2022-12-20T05:01:00;6.23;;;4.20;;
21593;SDS011;10959;51.328;7.322;2022-12-20T05:03:27;5.63;;;4.27;;
21593;SDS011;10959;51.328;7.322;2022-12-20T05:05:53;5.20;;;4.60;;
21593;SDS011;10959;51.328;7.322;2022-12-20T05:08:20;4.77;;;4.27;;
21593;SDS011;10959;51.328;7.322;2022-12-20T05:10:46;4.60;;;3.97;;
21593;SDS011;10959;51.328;7.322;2022-12-20T05:13:14;4.93;;;3.90;;
21593;SDS011;10959;51.328;7.322;2022-12-20T05:15:41;5.17;;;4.20;;
21593;SDS011;10959;51.328;7.322;2022-12-20T05:18:07;4.10;;;3.70;;
21593;SDS011;10959;51.328;7.322;2022-12-20T05:20:34;4.67;;;4.00;;
21593;SDS011;10959;51.328;7.322;2022-12-20T05:23:01;6.17;;;3.83;;
21593;SDS011;10959;51.328;7.322;2022-12-20T05:25:47;5.47;;;4.47;;
21593;SDS011;10959;51.328;7.322;2022-12-20T05:28:30;4.73;;;3.80;;
21593;SDS011;10959;51.328;7.322;2022-12-20T05:30:56;5.00;;;4.50;;
21593;SDS011;10959;51.328;7.322;2022-12-20T05:33:23;6.37;;;4.73;;
21593;SDS011;10959;51.328;7.322;2022-12-20T05:35:50;5.53;;;3.70;;
21593;SDS011;10959;51.328;7.322;2022-12-20T05:38:17;5.20;;;4.53;;
21593;SDS011;10959;51.328;7.322;2022-12-20T05:40:45;5.63;;;4.00;;
21593;SDS011;10959;51.328;7.322;2022-12-20T05:43:12;5.30;;;4.80;;
21593;SDS011;10959;51.328;7.322;2022-12-20T05:45:43;4.33;;;3.57;;
21593;SDS011;10959;51.328;7.322;2022-12-20T05:48:10;5.03;;;4.53;;
21593;SDS011;10959;51.328;7.322;2022-12-20T05:50:37;6.83;;;4.57;;
21593;SDS011;10959;51.328;7.322;2022-12-20T05:53:03;5.73;;;4.43;;
21593;SDS011;10959;51.328;7.322;2022-12-20T05:55:29;6.60;;;4.20;;
21593;SDS011;10959;51.328;7.322;2022-12-20T05:57:56;5.67;;;4.30;;
21593;SDS011;10959;51.328;7.322;2022-12-20T06:00:22;4.50;;;3.80;;
21593;SDS011;10959;51.328;7.322;2022-12-20T06:02:50;5.77;;;4.00;;
21593;SDS011;10959;51.328;7.322;2022-12-20T06:05:17;4.07;;;3.77;;
21593;SDS011;10959;51.328;7.322;2022-12-20T06:07:43;4.93;;;3.93;;
21593;SDS011;10959;51.328;7.322;2022-12-20T06:10:10;6.13;;;3.67;;
21593;SDS011;10959;51.328;7.322;2022-12-20T06:12:37;5.20;;;3.87;;
21593;SDS011;10959;51.328;7.322;2022-12-20T06:15:03;4.80;;;4.30;;
21593;SDS011;10959;51.328;7.322;2022-12-20T06:17:30;4.87;;;4.07;;
21593;SDS011;10959;51.328;7.322;2022-12-20T06:19:58;5.63;;;4.30;;
21593;SDS011;10959;51.328;7.322;2022-12-20T06:22:25;5.10;;;3.80;;
21593;SDS011;10959;51.328;7.322;2022-12-20T06:24:51;5.67;;;4.00;;
21593;SDS011;10959;51.328;7.322;2022-12-20T06:27:18;8.10;;;4.30;;
21593;SDS011;10959;51.328;7.322;2022-12-20T06:29:46;5.30;;;4.00;;
21593;SDS011;10959;51.328;7.322;2022-12-20T06:32:16;4.93;;;3.90;;
21593;SDS011;10959;51.328;7.322;2022-12-20T06:34:42;5.93;;;4.50;;
21593;SDS011;10959;51.328;7.322;2022-12-20T06:37:10;4.40;;;3.80;;
21593;SDS011;10959;51.328;7.322;2022-12-20T06:39:37;4.37;;;3.57;;
21593;SDS011;10959;51.328;7.322;2022-12-20T06:42:03;5.53;;;3.60;;
21593;SDS011;10959;51.328;7.322;2022-12-20T06:44:30;5.57;;;3.40;;
21593;SDS011;10959;51.328;7.322;2022-12-20T06:46:57;6.87;;;3.83;;
21593;SDS011;10959;51.328;7.322;2022-12-20T06:49:23;4.43;;;3.43;;
21593;SDS011;10959;51.328;7.322;2022-12-20T06:51:50;5.30;;;4.07;;
21593;SDS011;10959;51.328;7.322;2022-12-20T06:54:18;4.23;;;3.03;;
21593;SDS011;10959;51.328;7.322;2022-12-20T06:56:44;8.07;;;3.80;;
21593;SDS011;10959;51.328;7.322;2022-12-20T06:59:11;5.67;;;3.70;;
21593;SDS011;10959;51.328;7.322;2022-12-20T07:01:37;4.70;;;3.47;;
21593;SDS011;10959;51.328;7.322;2022-12-20T07:04:04;5.43;;;3.47;;
21593;SDS011;10959;51.328;7.322;2022-12-20T07:06:30;4.83;;;3.10;;
21593;SDS011;10959;51.328;7.322;2022-12-20T07:08:56;4.43;;;3.70;;
21593;SDS011;10959;51.328;7.322;2022-12-20T07:11:24;3.77;;;3.40;;
21593;SDS011;10959;51.328;7.322;2022-12-20T07:13:53;4.00;;;3.40;;
21593;SDS011;10959;51.328;7.322;2022-12-20T07:16:20;5.23;;;3.67;;
21593;SDS011;10959;51.328;7.322;2022-12-20T07:18:48;5.00;;;3.50;;
21593;SDS011;10959;51.328;7.322;2022-12-20T07:21:14;3.87;;;3.00;;
21593;SDS011;10959;51.328;7.322;2022-12-20T07:23:42;3.53;;;3.23;;
21593;SDS011;10959;51.328;7.322;2022-12-20T07:26:09;3.83;;;3.20;;
21593;SDS011;10959;51.328;7.322;2022-12-20T07:28:37;3.63;;;3.30;;
21593;SDS011;10959;51.328;7.322;2022-12-20T07:31:04;6.03;;;3.53;;
21593;SDS011;10959;51.328;7.322;2022-12-20T07:33:31;4.20;;;3.37;;
21593;SDS011;10959;51.328;7.322;2022-12-20T07:36:01;3.70;;;3.27;;
21593;SDS011;10959;51.328;7.322;2022-12-20T07:38:28;4.27;;;3.10;;
21593;SDS011;10959;51.328;7.322;2022-12-20T07:40:54;4.93;;;3.33;;
21593;SDS011;10959;51.328;7.322;2022-12-20T07:43:21;5.13;;;2.97;;
21593;SDS011;10959;51.328;7.322;2022-12-20T07:45:52;4.90;;;2.80;;
21593;SDS011;10959;51.328;7.322;2022-12-20T07:48:19;5.17;;;3.60;;
21593;SDS011;10959;51.328;7.322;2022-12-20T07:50:45;5.17;;;3.53;;
21593;SDS011;10959;51.328;7.322;2022-12-20T07:53:12;5.17;;;3.40;;
21593;SDS011;10959;51.328;7.322;2022-12-20T07:55:39;3.67;;;3.17;;
21593;SDS011;10959;51.328;7.322;2022-12-20T07:58:06;4.33;;;2.93;;
21593;SDS011;10959;51.328;7.322;2022-12-20T08:00:36;4.93;;;3.60;;
21593;SDS011;10959;51.328;7.322;2022-12-20T08:03:05;3.67;;;3.37;;
21593;SDS011;10959;51.328;7.322;2022-12-20T08:05:34;5.50;;;4.00;;
21593;SDS011;10959;51.328;7.322;2022-12-20T08:08:05;3.83;;;3.40;;
21593;SDS011;10959;51.328;7.322;2022-12-20T08:10:32;3.27;;;2.97;;
21593;SDS011;10959;51.328;7.322;2022-12-20T08:12:59;4.60;;;3.27;;
21593;SDS011;10959;51.328;7.322;2022-12-20T08:15:25;3.00;;;2.70;;
21593;SDS011;10959;51.328;7.322;2022-12-20T08:17:53;3.97;;;3.03;;
21593;SDS011;10959;51.328;7.322;2022-12-20T08:20:21;5.30;;;3.70;;
21593;SDS011;10959;51.328;7.322;2022-12-20T08:22:48;4.47;;;3.50;;
21593;SDS011;10959;51.328;7.322;2022-12-20T08:25:14;5.40;;;3.40;;
21593;SDS011;10959;51.328;7.322;2022-12-20T08:27:41;5.27;;;3.53;;
21593;SDS011;10959;51.328;7.322;2022-12-20T08:30:08;6.40;;;3.67;;
21593;SDS011;10959;51.328;7.322;2022-12-20T08:32:35;4.80;;;3.57;;
21593;SDS011;10959;51.328;7.322;2022-12-20T08:35:02;4.57;;;3.10;;
21593;SDS011;10959;51.328;7.322;2022-12-20T08:37:31;5.13;;;3.83;;
21593;SDS011;10959;51.328;7.322;2022-12-20T08:39:58;3.77;;;3.23;;
21593;SDS011;10959;51.328;7.322;2022-12-20T08:42:25;3.63;;;3.23;;
21593;SDS011;10959;51.328;7.322;2022-12-20T08:44:51;2.97;;;2.63;;
21593;SDS011;10959;51.328;7.322;2022-12-20T08:47:18;3.20;;;2.63;;
21593;SDS011;10959;51.328;7.322;2022-12-20T08:49:44;5.17;;;3.33;;
21593;SDS011;10959;51.328;7.322;2022-12-20T08:52:11;4.20;;;3.23;;
21593;SDS011;10959;51.328;7.322;2022-12-20T08:54:39;3.40;;;2.50;;
21593;SDS011;10959;51.328;7.322;2022-12-20T08:57:05;3.47;;;2.80;;
21593;SDS011;10959;51.328;7.322;2022-12-20T08:59:31;4.07;;;3.00;;
21593;SDS011;10959;51.328;7.322;2022-12-20T09:01:58;3.53;;;2.60;;
21593;SDS011;10959;51.328;7.322;2022-12-20T09:04:24;5.00;;;2.50;;
21593;SDS011;10959;51.328;7.322;2022-12-20T09:06:51;4.70;;;2.67;;
21593;SDS011;10959;51.328;7.322;2022-12-20T09:09:17;3.90;;;2.70;;
21593;SDS011;10959;51.328;7.322;2022-12-20T09:11:45;4.60;;;2.90;;
21593;SDS011;10959;51.328;7.322;2022-12-20T09:14:11;3.30;;;3.00;;
21593;SDS011;10959;51.328;7.322;2022-12-20T09:16:38;4.37;;;2.60;;
21593;SDS011;10959;51.328;7.322;2022-12-20T09:19:04;3.60;;;2.60;;
21593;SDS011;10959;51.328;7.322;2022-12-20T09:21:31;4.80;;;2.70;;
21593;SDS011;10959;51.328;7.322;2022-12-20T09:23:58;3.60;;;2.27;;
21593;SDS011;10959;51.328;7.322;2022-12-20T09:26:25;3.37;;;2.90;;
21593;SDS011;10959;51.328;7.322;2022-12-20T09:28:53;5.53;;;2.63;;
21593;SDS011;10959;51.328;7.322;2022-12-20T09:31:20;3.57;;;2.50;;
21593;SDS011;10959;51.328;7.322;2022-12-20T09:33:48;3.23;;;2.70;;
21593;SDS011;10959;51.328;7.322;2022-12-20T09:36:18;4.43;;;2.90;;
21593;SDS011;10959;51.328;7.322;2022-12-20T09:38:46;2.93;;;2.73;;
21593;SDS011;10959;51.328;7.322;2022-12-20T09:41:18;2.77;;;2.27;;
21593;SDS011;10959;51.328;7.322;2022-12-20T09:43:50;2.80;;;2.40;;
21593;SDS011;10959;51.328;7.322;2022-12-20T09:46:20;4.23;;;2.67;;
21593;SDS011;10959;51.328;7.322;2022-12-20T09:48:47;3.30;;;2.77;;
21593;SDS011;10959;51.328;7.322;2022-12-20T09:51:19;4.07;;;2.57;;
21593;SDS011;10959;51.328;7.322;2022-12-20T09:53:56;2.73;;;2.40;;
21593;SDS011;10959;51.328;7.322;2022-12-20T09:56:34;2.60;;;2.30;;
21593;SDS011;10959;51.328;7.322;2022-12-20T09:59:05;5.00;;;2.63;;
21593;SDS011;10959;51.328;7.322;2022-12-20T10:01:36;2.93;;;2.03;;
21593;SDS011;10959;51.328;7.322;2022-12-20T10:04:03;3.50;;;2.70;;
21593;SDS011;10959;51.328;7.322;2022-12-20T10:06:36;3.67;;;2.50;;
21593;SDS011;10959;51.328;7.322;2022-12-20T10:09:16;4.03;;;2.37;;
21593;SDS011;10959;51.328;7.322;2022-12-20T10:12:01;2.40;;;2.20;;
21593;SDS011;10959;51.328;7.322;2022-12-20T10:14:46;3.33;;;2.50;;
21593;SDS011;10959;51.328;7.322;2022-12-20T10:17:26;2.90;;;2.07;;
21593;SDS011;10959;51.328;7.322;2022-12-20T10:20:06;4.60;;;2.53;;
21593;SDS011;10959;51.328;7.322;2022-12-20T10:22:48;3.80;;;2.40;;
21593;SDS011;10959;51.328;7.322;2022-12-20T10:25:20;3.47;;;2.40;;
21593;SDS011;10959;51.328;7.322;2022-12-20T10:27:49;3.43;;;2.63;;
21593;SDS011;10959;51.328;7.322;2022-12-20T10:30:20;3.27;;;2.33;;
21593;SDS011;10959;51.328;7.322;2022-12-20T10:32:49;4.20;;;2.30;;
21593;SDS011;10959;51.328;7.322;2022-12-20T10:35:21;2.87;;;2.40;;
21593;SDS011;10959;51.328;7.322;2022-12-20T10:37:56;3.27;;;2.00;;
21593;SDS011;10959;51.328;7.322;2022-12-20T10:40:28;3.23;;;2.30;;
21593;SDS011;10959;51.328;7.322;2022-12-20T10:42:56;2.73;;;2.00;;
21593;SDS011;10959;51.328;7.322;2022-12-20T10:45:29;3.27;;;2.30;;
21593;SDS011;10959;51.328;7.322;2022-12-20T10:47:59;3.70;;;1.97;;
21593;SDS011;10959;51.328;7.322;2022-12-20T10:50:28;3.03;;;2.40;;
21593;SDS011;10959;51.328;7.322;2022-12-20T10:53:03;2.03;;;1.83;;
21593;SDS011;10959;51.328;7.322;2022-12-20T10:55:44;3.73;;;2.00;;
21593;SDS011;10959;51.328;7.322;2022-12-20T10:58:13;2.30;;;1.90;;
21593;SDS011;10959;51.328;7.322;2022-12-20T11:00:42;3.00;;;2.20;;
21593;SDS011;10959;51.328;7.322;2022-12-20T11:03:11;4.17;;;2.87;;
21593;SDS011;10959;51.328;7.322;2022-12-20T11:05:48;2.60;;;2.13;;
21593;SDS011;10959;51.328;7.322;2022-12-20T11:08:18;2.33;;;2.10;;
21593;SDS011;10959;51.328;7.322;2022-12-20T11:10:48;3.03;;;2.27;;
21593;SDS011;10959;51.328;7.322;2022-12-20T11:13:19;2.63;;;1.90;;
21593;SDS011;10959;51.328;7.322;2022-12-20T11:15:49;4.53;;;2.33;;
21593;SDS011;10959;51.328;7.322;2022-12-20T11:18:20;2.37;;;2.00;;
21593;SDS011;10959;51.328;7.322;2022-12-20T11:20:59;6.27;;;2.50;;
21593;SDS011;10959;51.328;7.322;2022-12-20T11:23:34;4.20;;;2.23;;
21593;SDS011;10959;51.328;7.322;2022-12-20T11:26:12;4.47;;;2.40;;
21593;SDS011;10959;51.328;7.322;2022-12-20T11:28:57;3.40;;;2.00;;
21593;SDS011;10959;51.328;7.322;2022-12-20T11:31:37;3.33;;;2.00;;
21593;SDS011;10959;51.328;7.322;2022-12-20T11:34:19;3.00;;;2.20;;
21593;SDS011;10959;51.328;7.322;2022-12-20T11:37:00;2.50;;;1.87;;
21593;SDS011;10959;51.328;7.322;2022-12-20T11:39:38;2.40;;;1.80;;
21593;SDS011;10959;51.328;7.322;2022-12-20T11:42:15;3.53;;;2.20;;
21593;SDS011;10959;51.328;7.322;2022-12-20T11:44:52;2.77;;;1.90;;
21593;SDS011;10959;51.328;7.322;2022-12-20T11:47:30;4.30;;;2.20;;
21593;SDS011;10959;51.328;7.322;2022-12-20T11:53:00;3.47;;;2.23;;
21593;SDS011;10959;51.328;7.322;2022-12-20T11:55:31;3.33;;;2.10;;
21593;SDS011;10959;51.328;7.322;2022-12-20T11:58:00;3.77;;;2.33;;
21593;SDS011;10959;51.328;7.322;2022-12-20T12:00:30;2.83;;;2.00;;
21593;SDS011;10959;51.328;7.322;2022-12-20T12:03:02;2.77;;;2.33;;
21593;SDS011;10959;51.328;7.322;2022-12-20T12:05:39;3.60;;;2.70;;
21593;SDS011;10959;51.328;7.322;2022-12-20T12:08:10;4.13;;;2.20;;
21593;SDS011;10959;51.328;7.322;2022-12-20T12:10:44;3.20;;;2.03;;
21593;SDS011;10959;51.328;7.322;2022-12-20T12:13:17;2.73;;;2.13;;
21593;SDS011;10959;51.328;7.322;2022-12-20T12:15:52;2.10;;;1.80;;
21593;SDS011;10959;51.328;7.322;2022-12-20T12:18:24;4.57;;;2.27;;
21593;SDS011;10959;51.328;7.322;2022-12-20T12:20:55;3.17;;;2.30;;
21593;SDS011;10959;51.328;7.322;2022-12-20T12:23:28;2.80;;;2.13;;
21593;SDS011;10959;51.328;7.322;2022-12-20T12:26:02;2.97;;;2.00;;
21593;SDS011;10959;51.328;7.322;2022-12-20T12:28:31;3.77;;;2.10;;
21593;SDS011;10959;51.328;7.322;2022-12-20T12:31:02;2.47;;;2.07;;
21593;SDS011;10959;51.328;7.322;2022-12-20T12:33:34;3.03;;;2.03;;
21593;SDS011;10959;51.328;7.322;2022-12-20T12:36:10;4.30;;;2.10;;
21593;SDS011;10959;51.328;7.322;2022-12-20T12:39:02;3.10;;;2.17;;
21593;SDS011;10959;51.328;7.322;2022-12-20T12:41:48;2.53;;;2.27;;
21593;SDS011;10959;51.328;7.322;2022-12-20T12:44:42;3.83;;;1.90;;
21593;SDS011;10959;51.328;7.322;2022-12-20T12:47:17;3.53;;;2.50;;
21593;SDS011;10959;51.328;7.322;2022-12-20T12:49:49;3.00;;;2.13;;
21593;SDS011;10959;51.328;7.322;2022-12-20T12:52:28;2.53;;;2.20;;
21593;SDS011;10959;51.328;7.322;2022-12-20T12:58:14;4.17;;;2.63;;
21593;SDS011;10959;51.328;7.322;2022-12-20T13:00:57;4.47;;;2.83;;
21593;SDS011;10959;51.328;7.322;2022-12-20T13:03:40;4.20;;;2.43;;
21593;SDS011;10959;51.328;7.322;2022-12-20T13:09:21;2.83;;;1.80;;
21593;SDS011;10959;51.328;7.322;2022-12-20T13:18:29;4.27;;;2.43;;
21593;SDS011;10959;51.328;7.322;2022-12-20T13:27:12;4.17;;;2.03;;
21593;SDS011;10959;51.328;7.322;2022-12-20T13:29:50;3.70;;;2.40;;
21593;SDS011;10959;51.328;7.322;2022-12-20T13:35:27;4.27;;;2.67;;
21593;SDS011;10959;51.328;7.322;2022-12-20T13:37:56;3.07;;;2.40;;
21593;SDS011;10959;51.328;7.322;2022-12-20T13:40:29;3.53;;;2.53;;
21593;SDS011;10959;51.328;7.322;2022-12-20T13:43:03;4.57;;;2.50;;
21593;SDS011;10959;51.328;7.322;2022-12-20T13:45:33;3.70;;;2.30;;
21593;SDS011;10959;51.328;7.322;2022-12-20T13:48:01;3.00;;;2.17;;
21593;SDS011;10959;51.328;7.322;2022-12-20T13:50:31;4.53;;;2.67;;
21593;SDS011;10959;51.328;7.322;2022-12-20T13:53:02;4.50;;;2.43;;
21593;SDS011;10959;51.328;7.322;2022-12-20T13:55:32;4.40;;;2.57;;
21593;SDS011;10959;51.328;7.322;2022-12-20T13:58:09;5.07;;;2.50;;
21593;SDS011;10959;51.328;7.322;2022-12-20T14:00:41;3.77;;;2.50;;
21593;SDS011;10959;51.328;7.322;2022-12-20T14:03:12;3.63;;;2.20;;
21593;SDS011;10959;51.328;7.322;2022-12-20T14:05:45;4.03;;;2.40;;
21593;SDS011;10959;51.328;7.322;2022-12-20T14:08:12;2.93;;;2.10;;
21593;SDS011;10959;51.328;7.322;2022-12-20T14:10:40;3.23;;;2.07;;
21593;SDS011;10959;51.328;7.322;2022-12-20T14:13:14;2.97;;;2.67;;
21593;SDS011;10959;51.328;7.322;2022-12-20T14:15:46;2.70;;;2.20;;
21593;SDS011;10959;51.328;7.322;2022-12-20T14:18:15;2.93;;;2.27;;
21593;SDS011;10959;51.328;7.322;2022-12-20T14:20:43;3.30;;;2.70;;
21593;SDS011;10959;51.328;7.322;2022-12-20T14:23:13;3.53;;;2.13;;
21593;SDS011;10959;51.328;7.322;2022-12-20T14:25:42;3.47;;;2.33;;
21593;SDS011;10959;51.328;7.322;2022-12-20T14:28:24;4.70;;;2.33;;
21593;SDS011;10959;51.328;7.322;2022-12-20T14:30:55;4.13;;;2.20;;
21593;SDS011;10959;51.328;7.322;2022-12-20T14:33:30;4.43;;;2.00;;
21593;SDS011;10959;51.328;7.322;2022-12-20T14:36:07;2.17;;;1.70;;
21593;SDS011;10959;51.328;7.322;2022-12-20T14:38:34;2.87;;;1.93;;
21593;SDS011;10959;51.328;7.322;2022-12-20T14:41:02;3.43;;;2.27;;
21593;SDS011;10959;51.328;7.322;2022-12-20T14:43:33;2.80;;;2.17;;
21593;SDS011;10959;51.328;7.322;2022-12-20T14:46:14;4.43;;;2.40;;
21593;SDS011;10959;51.328;7.322;2022-12-20T14:48:43;7.47;;;4.80;;
21593;SDS011;10959;51.328;7.322;2022-12-20T14:51:11;4.27;;;3.00;;
21593;SDS011;10959;51.328;7.322;2022-12-20T14:53:39;4.30;;;3.00;;
21593;SDS011;10959;51.328;7.322;2022-12-20T14:56:11;4.20;;;2.43;;
21593;SDS011;10959;51.328;7.322;2022-12-20T14:58:41;6.93;;;2.57;;
21593;SDS011;10959;51.328;7.322;2022-12-20T15:01:16;2.30;;;2.10;;
21593;SDS011;10959;51.328;7.322;2022-12-20T15:03:47;4.40;;;2.30;;
21593;SDS011;10959;51.328;7.322;2022-12-20T15:06:29;2.20;;;2.00;;
21593;SDS011;10959;51.328;7.322;2022-12-20T15:08:58;3.00;;;2.20;;
21593;SDS011;10959;51.328;7.322;2022-12-20T15:11:24;2.93;;;2.10;;
21593;SDS011;10959;51.328;7.322;2022-12-20T15:13:52;2.30;;;2.10;;
21593;SDS011;10959;51.328;7.322;2022-12-20T15:16:20;3.37;;;2.60;;
21593;SDS011;10959;51.328;7.322;2022-12-20T15:18:48;2.83;;;2.03;;
21593;SDS011;10959;51.328;7.322;2022-12-20T15:21:17;2.43;;;2.20;;
21593;SDS011;10959;51.328;7.322;2022-12-20T15:23:51;4.23;;;2.30;;
21593;SDS011;10959;51.328;7.322;2022-12-20T15:26:20;3.30;;;2.40;;
21593;SDS011;10959;51.328;7.322;2022-12-20T15:28:48;4.60;;;2.60;;